createdAt,value
2019-05-12T00:01:53.423Z,12.53
2019-05-12T00:04:23.994Z,12.40
2019-05-12T00:06:54.583Z,13.33
2019-05-12T00:09:25.045Z,12.50
2019-05-12T00:11:55.467Z,13.83
2019-05-12T00:14:28.122Z,13.17
2019-05-12T00:16:58.183Z,14.40
2019-05-12T00:19:28.746Z,14.53
2019-05-12T00:21:59.222Z,14.17
2019-05-12T00:24:29.651Z,14.27
2019-05-12T00:27:02.739Z,14.73
2019-05-12T00:29:33.272Z,14.50
2019-05-12T00:32:03.695Z,15.27
2019-05-12T00:34:34.121Z,17.03
2019-05-12T00:37:04.754Z,16.17
2019-05-12T00:39:35.184Z,14.57
2019-05-12T00:42:07.751Z,15.17
2019-05-12T00:44:39.017Z,14.60
2019-05-12T00:47:09.740Z,14.83
2019-05-12T00:49:39.287Z,15.17
2019-05-12T00:52:09.775Z,16.53
2019-05-12T00:54:40.406Z,15.90
2019-05-12T00:57:10.835Z,15.80
2019-05-12T00:59:41.264Z,15.87
2019-05-12T01:02:10.770Z,17.23
2019-05-12T01:04:41.295Z,16.43
2019-05-12T01:07:11.827Z,16.13
2019-05-12T01:09:43.275Z,17.80
2019-05-12T01:12:13.707Z,18.03
2019-05-12T01:14:44.128Z,17.87
2019-05-12T01:17:14.555Z,17.47
2019-05-12T01:19:45.189Z,18.30
2019-05-12T01:22:15.615Z,17.50
2019-05-12T01:24:48.202Z,16.60
2019-05-12T01:27:18.201Z,16.80
2019-05-12T01:29:48.636Z,15.43
2019-05-12T01:32:30.421Z,16.20
2019-05-12T01:35:00.139Z,16.70
2019-05-12T01:37:30.568Z,16.57
2019-05-12T01:40:00.997Z,16.07
2019-05-12T01:42:31.423Z,15.13
2019-05-12T01:45:01.869Z,16.07
2019-05-12T01:47:32.281Z,15.67
2019-05-12T01:50:01.787Z,15.87
2019-05-12T01:52:32.414Z,15.53
2019-05-12T01:55:02.849Z,16.93
2019-05-12T01:57:33.470Z,16.67
2019-05-12T02:00:04.106Z,16.57
2019-05-12T02:02:34.640Z,15.93
2019-05-12T02:05:09.715Z,16.70
2019-05-12T02:07:44.912Z,17.27
2019-05-12T02:10:17.798Z,16.93
2019-05-12T02:12:49.043Z,15.57
2019-05-12T02:15:20.274Z,17.47
2019-05-12T02:17:50.819Z,15.93
2019-05-12T02:20:22.365Z,14.80
2019-05-12T02:22:52.864Z,15.43
2019-05-12T02:25:23.329Z,14.00
2019-05-12T02:27:53.749Z,16.53
2019-05-12T02:30:25.309Z,15.30
2019-05-12T02:32:59.009Z,14.67
2019-05-12T02:35:28.112Z,16.07
2019-05-12T02:37:58.737Z,16.57
2019-05-12T02:40:29.181Z,15.07
2019-05-12T02:42:59.804Z,14.80
2019-05-12T02:45:30.225Z,15.07
2019-05-12T02:48:00.649Z,15.10
2019-05-12T02:50:37.195Z,16.50
2019-05-12T02:53:08.209Z,16.87
2019-05-12T02:55:39.542Z,18.80
2019-05-12T02:58:15.159Z,17.90
2019-05-12T03:00:45.944Z,16.50
2019-05-12T03:03:19.414Z,16.47
2019-05-12T03:05:54.721Z,18.00
2019-05-12T03:08:25.916Z,19.03
2019-05-12T03:10:57.507Z,17.67
2019-05-12T03:13:27.959Z,18.53
2019-05-12T03:15:58.385Z,17.93
2019-05-12T03:18:28.851Z,18.70
2019-05-12T03:21:00.376Z,18.77
2019-05-12T03:23:30.799Z,19.27
2019-05-12T03:26:01.274Z,18.23
2019-05-12T03:28:35.263Z,19.50
2019-05-12T03:31:07.676Z,18.60
2019-05-12T03:33:43.488Z,17.93
2019-05-12T03:36:09.792Z,19.17
2019-05-12T03:38:40.113Z,19.47
2019-05-12T03:41:14.405Z,18.17
2019-05-12T03:43:44.873Z,18.90
2019-05-12T03:46:15.597Z,18.87
2019-05-12T03:48:46.123Z,20.70
2019-05-12T03:51:16.619Z,19.30
2019-05-12T03:53:47.080Z,19.67
2019-05-12T03:56:17.504Z,20.50
2019-05-12T03:58:47.983Z,20.17
2019-05-12T04:01:18.463Z,20.20
2019-05-12T04:03:48.997Z,20.50
2019-05-12T04:06:19.521Z,21.37
2019-05-12T04:08:50.049Z,19.97
2019-05-12T04:11:24.870Z,19.60
2019-05-12T04:13:55.032Z,19.87
2019-05-12T04:16:25.738Z,21.07
2019-05-12T04:18:56.166Z,22.83
2019-05-12T04:21:26.765Z,22.83
2019-05-12T04:23:57.220Z,22.20
2019-05-12T04:26:27.650Z,21.30
2019-05-12T04:28:58.133Z,24.13
2019-05-12T04:31:28.602Z,21.27
2019-05-12T04:33:59.031Z,25.77
2019-05-12T04:36:29.459Z,19.20
2019-05-12T04:38:59.884Z,17.63
2019-05-12T04:41:30.313Z,17.57
2019-05-12T04:44:00.726Z,17.83
2019-05-12T04:46:34.390Z,18.63
2019-05-12T04:49:05.292Z,18.87
2019-05-12T04:51:36.435Z,18.23
2019-05-12T04:54:06.954Z,16.50
2019-05-12T04:56:37.585Z,18.73
2019-05-12T04:59:08.011Z,22.07
2019-05-12T05:01:38.487Z,21.20
2019-05-12T05:04:09.046Z,21.23
2019-05-12T05:06:39.588Z,21.77
2019-05-12T05:09:10.540Z,21.30
2019-05-12T05:11:41.071Z,20.67
2019-05-12T05:14:13.529Z,21.10
2019-05-12T05:16:45.093Z,22.47
2019-05-12T05:19:15.625Z,20.47
2019-05-12T05:21:46.053Z,22.20
2019-05-12T05:24:16.478Z,21.03
2019-05-12T05:26:46.910Z,20.77
2019-05-12T05:29:17.331Z,22.53
2019-05-12T05:31:47.805Z,20.83
2019-05-12T05:34:18.291Z,24.07
2019-05-12T05:36:50.967Z,22.17
2019-05-12T05:39:20.780Z,23.83
2019-05-12T05:41:51.237Z,22.63
2019-05-12T05:44:23.852Z,23.67
2019-05-12T05:46:56.128Z,25.20
2019-05-12T05:49:26.085Z,24.87
2019-05-12T05:51:57.581Z,25.03
2019-05-12T05:54:31.585Z,26.13
2019-05-12T05:57:02.958Z,25.53
2019-05-12T05:59:36.481Z,26.30
2019-05-12T06:02:05.102Z,26.20
2019-05-12T06:04:39.076Z,27.07
2019-05-12T06:07:08.077Z,26.07
2019-05-12T06:09:38.498Z,24.23
2019-05-12T06:12:10.119Z,24.67
2019-05-12T06:14:41.046Z,21.77
2019-05-12T06:17:11.624Z,21.90
2019-05-12T06:19:43.783Z,20.37
2019-05-12T06:22:18.230Z,17.70
2019-05-12T06:24:49.218Z,17.97
2019-05-12T06:27:20.932Z,18.67
2019-05-12T06:30:00.633Z,16.97
2019-05-12T06:32:25.124Z,16.60
2019-05-12T06:35:01.258Z,16.20
2019-05-12T06:37:27.913Z,16.63
2019-05-12T06:40:00.604Z,16.17
2019-05-12T06:42:31.252Z,16.57
2019-05-12T06:45:03.691Z,15.63
2019-05-12T06:47:34.453Z,15.73
2019-05-12T06:50:05.157Z,15.63
2019-05-12T06:52:38.539Z,14.33
2019-05-12T06:55:08.070Z,14.40
2019-05-12T06:57:39.976Z,13.43
2019-05-12T07:00:11.633Z,12.10
2019-05-12T07:02:50.018Z,10.60
2019-05-12T07:05:14.719Z,11.83
2019-05-12T07:07:46.197Z,10.27
2019-05-12T07:10:35.725Z,9.90
2019-05-12T07:12:59.008Z,10.60
2019-05-12T07:15:23.217Z,11.40
2019-05-12T07:17:57.981Z,12.03
2019-05-12T07:20:29.150Z,11.63
2019-05-12T07:23:00.614Z,10.37
2019-05-12T07:25:33.727Z,8.90
2019-05-12T07:28:07.528Z,10.40
2019-05-12T07:30:36.394Z,8.33
2019-05-12T07:33:06.110Z,6.97
2019-05-12T07:35:39.650Z,6.93
2019-05-12T07:38:12.074Z,5.93
2019-05-12T07:40:45.740Z,5.93
2019-05-12T07:43:20.598Z,5.97
2019-05-12T07:45:56.644Z,5.22
2019-05-12T07:48:25.259Z,4.80
2019-05-12T07:51:00.426Z,4.50
2019-05-12T07:53:28.163Z,4.67
2019-05-12T07:55:58.766Z,4.20
2019-05-12T07:58:29.239Z,3.80
2019-05-12T08:01:07.203Z,3.77
2019-05-12T08:03:34.307Z,3.90
2019-05-12T08:06:04.621Z,4.28
2019-05-12T08:08:41.875Z,3.70
2019-05-12T08:11:10.116Z,3.33
2019-05-12T08:13:41.014Z,3.45
2019-05-12T08:16:14.147Z,3.00
2019-05-12T08:18:44.590Z,2.83
2019-05-12T08:21:15.252Z,3.70
2019-05-12T08:23:45.677Z,3.15
2019-05-12T08:26:18.636Z,3.10
2019-05-12T08:28:48.192Z,3.30
2019-05-12T08:31:23.494Z,3.25
2019-05-12T08:33:50.969Z,3.47
2019-05-12T08:36:23.453Z,3.05
2019-05-12T08:38:53.747Z,3.17
2019-05-12T08:41:24.411Z,3.22
2019-05-12T08:43:58.337Z,2.27
2019-05-12T08:46:28.168Z,2.60
2019-05-12T08:49:02.245Z,2.65
2019-05-12T08:51:33.745Z,2.60
2019-05-12T08:54:07.824Z,2.27
2019-05-12T08:56:35.973Z,2.55
2019-05-12T08:59:09.573Z,1.87
2019-05-12T09:01:40.719Z,2.60
2019-05-12T09:04:15.130Z,2.40
2019-05-12T09:06:44.122Z,2.58
2019-05-12T09:09:14.875Z,2.52
2019-05-12T09:11:45.293Z,2.30
2019-05-12T09:14:15.822Z,2.50
2019-05-12T09:16:46.252Z,2.75
2019-05-12T09:19:23.539Z,2.25
2019-05-12T09:21:48.743Z,2.02
2019-05-12T09:24:26.899Z,2.72
2019-05-12T09:26:51.234Z,2.15
2019-05-12T09:29:21.661Z,2.40
2019-05-12T09:31:53.195Z,2.50
2019-05-12T09:34:23.735Z,2.35
2019-05-12T09:36:59.488Z,1.82
2019-05-12T09:39:26.351Z,2.00
2019-05-12T09:41:56.829Z,2.62
2019-05-12T09:44:30.439Z,2.83
2019-05-12T09:46:59.846Z,3.30
2019-05-12T09:49:36.727Z,3.67
2019-05-12T09:52:03.651Z,3.37
2019-05-12T09:54:40.626Z,3.65
2019-05-12T09:57:06.970Z,4.00
2019-05-12T09:59:37.537Z,4.40
2019-05-12T10:02:10.417Z,5.12
2019-05-12T10:04:40.031Z,4.55
2019-05-12T10:07:10.561Z,3.85
2019-05-12T10:09:41.302Z,4.40
2019-05-12T10:12:13.545Z,4.75
2019-05-12T10:14:45.839Z,4.20
2019-05-12T10:17:20.364Z,4.65
2019-05-12T10:19:54.194Z,3.80
2019-05-12T10:22:23.538Z,5.12
2019-05-12T10:24:58.355Z,4.58
2019-05-12T10:27:31.787Z,4.45
2019-05-12T10:30:05.621Z,4.47
2019-05-12T10:32:31.623Z,4.90
2019-05-12T10:35:02.060Z,4.90
2019-05-12T10:37:32.477Z,4.87
2019-05-12T10:40:04.498Z,5.20
2019-05-12T10:42:39.849Z,4.55
2019-05-12T10:45:10.867Z,4.60
2019-05-12T10:47:39.918Z,4.72
2019-05-12T10:50:11.067Z,4.83
2019-05-12T10:52:43.870Z,4.45
2019-05-12T10:55:14.455Z,5.70
2019-05-12T10:57:47.237Z,4.03
2019-05-12T11:00:25.191Z,3.85
2019-05-12T11:02:53.381Z,4.58
2019-05-12T11:05:26.091Z,4.75
2019-05-12T11:08:00.357Z,4.47
2019-05-12T11:10:27.874Z,4.80
2019-05-12T11:12:59.114Z,4.00
2019-05-12T11:15:30.590Z,4.03
2019-05-12T11:18:20.481Z,4.42
2019-05-12T11:20:51.415Z,4.45
2019-05-12T11:23:24.235Z,3.80
2019-05-12T11:25:54.006Z,3.85
2019-05-12T11:28:24.593Z,3.85
2019-05-12T11:30:55.169Z,4.12
2019-05-12T11:33:25.801Z,4.53
2019-05-12T11:35:56.444Z,4.65
2019-05-12T11:38:27.067Z,4.15
2019-05-12T11:40:57.489Z,3.75
2019-05-12T11:43:29.752Z,3.45
2019-05-12T11:46:01.202Z,3.50
2019-05-12T11:48:33.732Z,4.35
2019-05-12T11:51:05.757Z,3.98
2019-05-12T11:53:36.291Z,3.17
2019-05-12T11:56:07.785Z,3.20
2019-05-12T11:58:41.307Z,3.33
2019-05-12T12:01:14.014Z,2.90
2019-05-12T12:03:44.563Z,3.12
2019-05-12T12:06:14.968Z,3.30
2019-05-12T12:08:45.398Z,3.62
2019-05-12T12:11:21.968Z,3.62
2019-05-12T12:13:49.733Z,3.40
2019-05-12T12:16:20.205Z,2.60
2019-05-12T12:18:59.567Z,3.67
2019-05-12T12:21:23.718Z,3.00
2019-05-12T12:23:54.315Z,3.42
2019-05-12T12:26:30.406Z,3.27
2019-05-12T12:28:58.529Z,3.22
2019-05-12T12:31:37.242Z,3.50
2019-05-12T12:34:03.586Z,2.98
2019-05-12T12:36:36.187Z,3.75
2019-05-12T12:39:07.828Z,3.20
2019-05-12T12:41:44.157Z,2.77
2019-05-12T12:44:10.318Z,4.05
2019-05-12T12:46:40.894Z,3.40
2019-05-12T12:49:13.912Z,3.60
2019-05-12T12:51:44.574Z,3.17
2019-05-12T12:54:14.995Z,2.83
2019-05-12T12:56:45.421Z,3.15
2019-05-12T12:59:15.941Z,2.30
2019-05-12T13:01:46.377Z,2.70
2019-05-12T13:04:16.805Z,2.27
2019-05-12T13:06:47.232Z,2.60
2019-05-12T13:09:24.342Z,2.47
2019-05-12T13:11:50.182Z,2.45
2019-05-12T13:14:20.665Z,2.17
2019-05-12T13:16:54.670Z,3.05
2019-05-12T13:19:23.802Z,2.58
2019-05-12T13:21:54.290Z,2.35
2019-05-12T13:24:24.727Z,2.25
2019-05-12T13:26:55.157Z,2.00
2019-05-12T13:29:34.511Z,1.87
2019-05-12T13:31:58.678Z,1.80
2019-05-12T13:34:33.916Z,2.30
2019-05-12T13:37:03.337Z,1.90
2019-05-12T13:39:33.663Z,1.92
2019-05-12T13:42:04.168Z,1.80
2019-05-12T13:44:38.771Z,1.90
2019-05-12T13:47:06.661Z,1.80
2019-05-12T13:49:42.681Z,1.90
2019-05-12T13:52:10.383Z,1.90
2019-05-12T13:54:43.541Z,2.17
2019-05-12T13:57:13.409Z,1.87
2019-05-12T13:59:43.915Z,2.08
2019-05-12T14:02:22.037Z,2.30
2019-05-12T14:04:46.805Z,2.00
2019-05-12T14:07:20.113Z,2.15
2019-05-12T14:09:49.415Z,2.12
2019-05-12T14:12:20.146Z,1.47
2019-05-12T14:14:50.578Z,2.10
2019-05-12T14:17:23.390Z,1.80
2019-05-12T14:19:53.349Z,2.10
2019-05-12T14:22:26.340Z,1.98
2019-05-12T14:24:55.967Z,1.85
2019-05-12T14:27:28.730Z,2.17
2019-05-12T14:30:00.286Z,1.70
2019-05-12T14:32:30.628Z,1.90
2019-05-12T14:35:01.057Z,2.27
2019-05-12T14:37:33.508Z,2.02
2019-05-12T14:40:06.518Z,1.87
2019-05-12T14:42:39.696Z,1.70
2019-05-12T14:45:09.280Z,1.90
2019-05-12T14:47:39.742Z,2.10
2019-05-12T14:50:10.169Z,1.60
2019-05-12T14:52:40.652Z,1.92
2019-05-12T14:55:13.636Z,2.15
2019-05-12T14:57:43.499Z,1.72
2019-05-12T15:00:19.999Z,1.72
2019-05-12T15:02:47.323Z,1.90
2019-05-12T15:05:17.751Z,2.10
2019-05-12T15:07:53.749Z,1.72
2019-05-12T15:10:19.900Z,2.22
2019-05-12T15:12:50.661Z,2.10
2019-05-12T15:15:21.198Z,1.90
2019-05-12T15:17:56.678Z,1.70
2019-05-12T15:20:24.717Z,1.92
2019-05-12T15:22:55.487Z,1.67
2019-05-12T15:25:29.479Z,1.60
2019-05-12T15:27:58.044Z,1.60
2019-05-12T15:30:28.458Z,1.30
2019-05-12T15:32:58.886Z,1.62
2019-05-12T15:35:29.324Z,1.50
2019-05-12T15:37:59.750Z,1.30
2019-05-12T15:40:30.178Z,1.45
2019-05-12T15:43:03.071Z,1.37
2019-05-12T15:45:34.261Z,1.55
2019-05-12T15:48:04.837Z,1.57
2019-05-12T15:50:35.270Z,1.60
2019-05-12T15:53:05.692Z,1.95
2019-05-12T15:55:36.174Z,2.00
2019-05-12T15:58:06.760Z,1.67
2019-05-12T16:00:38.506Z,1.72
2019-05-12T16:03:09.040Z,1.90
2019-05-12T16:05:39.463Z,1.92
2019-05-12T16:08:09.890Z,2.20
2019-05-12T16:10:40.325Z,1.92
2019-05-12T16:13:15.505Z,2.20
2019-05-12T16:15:43.896Z,2.10
2019-05-12T16:18:14.557Z,2.60
2019-05-12T16:20:44.995Z,2.50
2019-05-12T16:23:23.811Z,2.60
2019-05-12T16:25:47.547Z,2.70
2019-05-12T16:28:23.403Z,2.63
2019-05-12T16:30:51.107Z,2.50
2019-05-12T16:33:22.779Z,2.50
2019-05-12T16:35:54.603Z,2.80
2019-05-12T16:38:25.153Z,2.30
2019-05-12T16:40:56.711Z,2.80
2019-05-12T16:43:29.464Z,2.10
2019-05-12T16:45:59.198Z,2.50
2019-05-12T16:48:33.264Z,2.43
2019-05-12T16:51:03.316Z,2.00
2019-05-12T16:53:34.165Z,2.20
2019-05-12T16:56:04.764Z,2.03
2019-05-12T16:58:35.535Z,2.10
2019-05-12T17:01:06.170Z,2.30
2019-05-12T17:03:36.591Z,2.70
2019-05-12T17:06:07.020Z,2.30
2019-05-12T17:08:37.443Z,2.20
2019-05-12T17:11:23.079Z,2.60
2019-05-12T17:13:40.327Z,2.67
2019-05-12T17:16:10.773Z,2.53
2019-05-12T17:18:41.202Z,2.60
2019-05-12T17:21:13.991Z,2.00
2019-05-12T17:23:43.703Z,2.70
2019-05-12T17:26:14.137Z,2.50
2019-05-12T17:28:44.599Z,2.23
2019-05-12T17:31:15.330Z,2.30
2019-05-12T17:33:45.810Z,2.17
2019-05-12T17:36:18.014Z,2.60
2019-05-12T17:38:51.137Z,2.20
2019-05-12T17:41:20.367Z,2.30
2019-05-12T17:43:56.887Z,2.27
2019-05-12T17:46:23.327Z,2.23
2019-05-12T17:48:53.801Z,2.00
2019-05-12T17:51:26.725Z,1.90
2019-05-12T17:53:57.417Z,1.90
2019-05-12T17:56:33.937Z,2.47
2019-05-12T17:58:59.916Z,2.07
2019-05-12T18:01:34.942Z,2.30
2019-05-12T18:04:04.363Z,2.17
2019-05-12T18:06:35.074Z,2.00
2019-05-12T18:09:09.189Z,2.00
2019-05-12T18:11:39.830Z,2.10
2019-05-12T18:14:10.448Z,2.20
2019-05-12T18:16:43.388Z,2.17
2019-05-12T18:19:17.719Z,2.47
2019-05-12T18:21:45.177Z,2.00
2019-05-12T18:24:15.702Z,2.30
2019-05-12T18:26:54.526Z,2.30
2019-05-12T18:29:18.245Z,2.07
2019-05-12T18:31:48.900Z,1.87
2019-05-12T18:34:19.984Z,2.47
2019-05-12T18:36:58.126Z,3.13
2019-05-12T18:39:24.311Z,2.00
2019-05-12T18:41:55.090Z,1.83
2019-05-12T18:44:31.317Z,1.97
2019-05-12T18:46:57.581Z,2.20
2019-05-12T18:49:28.010Z,1.80
2019-05-12T18:51:57.606Z,1.83
2019-05-12T18:54:28.051Z,1.70
2019-05-12T18:57:02.335Z,1.80
2019-05-12T18:59:30.536Z,1.90
2019-05-12T19:02:03.470Z,1.80
2019-05-12T19:04:34.017Z,2.10
2019-05-12T19:07:05.193Z,1.50
2019-05-12T19:09:35.621Z,1.70
2019-05-12T19:12:15.693Z,2.00
2019-05-12T19:14:40.385Z,2.00
2019-05-12T19:17:11.126Z,1.60
2019-05-12T19:19:45.998Z,1.53
2019-05-12T19:22:14.208Z,2.00
2019-05-12T19:24:44.668Z,1.37
2019-05-12T19:27:18.940Z,2.10
2019-05-12T19:29:49.243Z,1.80
2019-05-12T19:32:19.806Z,1.80
2019-05-12T19:34:50.299Z,1.73
2019-05-12T19:37:27.387Z,1.83
2019-05-12T19:39:53.821Z,1.63
2019-05-12T19:42:25.180Z,1.70
2019-05-12T19:44:59.698Z,1.70
2019-05-12T19:47:33.160Z,2.00
2019-05-12T19:50:08.770Z,1.80
2019-05-12T19:52:32.950Z,1.80
2019-05-12T19:55:03.792Z,2.10
2019-05-12T19:57:34.317Z,1.87
2019-05-12T20:00:05.199Z,2.17
2019-05-12T20:02:35.684Z,2.17
2019-05-12T20:05:07.034Z,2.13
2019-05-12T20:07:37.503Z,2.80
2019-05-12T20:10:08.099Z,1.97
2019-05-12T20:12:38.537Z,2.60
2019-05-12T20:15:09.456Z,2.20
2019-05-12T20:17:39.949Z,2.20
2019-05-12T20:20:10.915Z,2.33
2019-05-12T20:22:43.896Z,2.70
2019-05-12T20:25:14.534Z,2.30
2019-05-12T20:27:45.470Z,2.40
2019-05-12T20:30:20.823Z,2.47
2019-05-12T20:32:48.511Z,2.23
2019-05-12T20:35:19.224Z,2.50
2019-05-12T20:37:53.019Z,2.40
2019-05-12T20:40:23.887Z,2.47
2019-05-12T20:43:07.779Z,2.63
2019-05-12T20:45:26.151Z,2.40
2019-05-12T20:47:56.579Z,2.40
2019-05-12T20:50:32.952Z,2.50
2019-05-12T20:53:00.093Z,2.43
2019-05-12T20:55:36.616Z,2.50
2019-05-12T20:58:04.495Z,2.50
2019-05-12T21:00:38.886Z,2.50
2019-05-12T21:03:06.822Z,2.47
2019-05-12T21:05:37.255Z,2.50
2019-05-12T21:08:12.112Z,2.77
2019-05-12T21:10:39.786Z,2.67
2019-05-12T21:13:10.270Z,2.80
2019-05-12T21:15:42.936Z,3.60
2019-05-12T21:18:14.624Z,2.50
2019-05-12T21:20:46.485Z,2.60
2019-05-12T21:23:17.406Z,2.80
2019-05-12T21:25:52.468Z,2.33
2019-05-12T21:28:19.895Z,2.60
2019-05-12T21:30:50.326Z,2.50
2019-05-12T21:33:20.751Z,2.40
2019-05-12T21:35:54.510Z,2.50
2019-05-12T21:38:29.246Z,2.87
2019-05-12T21:40:56.501Z,2.67
2019-05-12T21:43:26.963Z,2.40
2019-05-12T21:46:01.007Z,2.57
2019-05-12T21:48:29.306Z,2.40
2019-05-12T21:50:59.061Z,3.07
2019-05-12T21:53:28.661Z,2.37
2019-05-12T21:56:04.050Z,2.63
2019-05-12T21:58:31.166Z,2.50
2019-05-12T22:01:06.905Z,2.80
2019-05-12T22:03:35.705Z,2.20
2019-05-12T22:06:15.537Z,2.17
2019-05-12T22:08:38.494Z,1.90
2019-05-12T22:11:11.391Z,2.10
2019-05-12T22:13:46.850Z,2.20
2019-05-12T22:16:14.173Z,2.17
2019-05-12T22:18:47.706Z,2.10
2019-05-12T22:21:17.811Z,2.40
2019-05-12T22:23:51.130Z,2.27
2019-05-12T22:26:20.287Z,2.33
2019-05-12T22:28:51.141Z,1.97
2019-05-12T22:31:24.133Z,1.93
2019-05-12T22:33:56.381Z,1.93
2019-05-12T22:36:29.990Z,2.30
2019-05-12T22:39:00.834Z,2.60
2019-05-12T22:41:35.253Z,2.17
2019-05-12T22:44:02.503Z,2.23
2019-05-12T22:46:35.752Z,2.77
2019-05-12T22:49:10.125Z,1.83
2019-05-12T22:51:38.392Z,2.20
2019-05-12T22:54:10.554Z,2.33
2019-05-12T22:56:40.886Z,2.03
2019-05-12T22:59:13.643Z,2.30
2019-05-12T23:01:46.757Z,2.00
2019-05-12T23:04:16.468Z,2.17
2019-05-12T23:06:46.963Z,1.97
2019-05-12T23:09:19.535Z,2.00
2019-05-12T23:11:49.489Z,1.70
2019-05-12T23:14:22.383Z,2.40
2019-05-12T23:16:54.375Z,2.37
2019-05-12T23:19:24.403Z,1.90
2019-05-12T23:21:58.727Z,1.80
2019-05-12T23:24:30.285Z,2.10
2019-05-12T23:26:59.017Z,2.00
2019-05-12T23:29:30.961Z,1.77
2019-05-12T23:32:07.385Z,1.90
2019-05-12T23:34:34.006Z,1.90
2019-05-12T23:37:04.401Z,1.97
2019-05-12T23:39:38.001Z,1.80
2019-05-12T23:42:06.898Z,2.20
2019-05-12T23:44:37.331Z,1.70
2019-05-12T23:47:07.868Z,2.10
2019-05-12T23:49:38.385Z,2.13
2019-05-12T23:52:08.813Z,1.90
2019-05-12T23:54:39.230Z,2.00
2019-05-12T23:57:12.838Z,2.00
2019-05-12T23:59:41.822Z,2.03
